Lacelle, Iowa
Current Conditions -  °F | °C
As of 8:55 AM on Thursday 30 Oct 2014 (Local Time) from KI75 Reporting Station
Scattered Clouds Scattered Clouds  
Wind Chill: 45°   Ceiling: Unl
Heat Index: 45°   Visibility: 10mi
Dew Point: 37°   Wind: 0mph
Humidity: 72%   Direction: NA
Pressure: 30.02"   Gusts: NA
Location:  41.0111°N, 93.7971°W
Report Text: KI75 301355Z AUTO 00000KT 10SM SCT110 07/03 A3002 RMK AO2 T00740027
Loading
Personal Weather Stations






























Interactive Weather Map
Tropical Storm Tracking
New forecast layout! Learn more

10-Day Weather Forecast

Advertisements
Track Severe Weather on mobile